createdAt,value
2023-01-05T00:01:58.964Z,158.85
2023-01-05T00:06:10.573Z,192.95
2023-01-05T00:10:33.218Z,192.20
2023-01-05T00:14:54.392Z,190.95
2023-01-05T00:19:16.070Z,114.00
2023-01-05T00:23:19.827Z,134.90
2023-01-05T00:27:22.187Z,88.40
2023-01-05T00:31:25.005Z,83.65
2023-01-05T00:35:28.978Z,115.90
2023-01-05T00:39:31.250Z,86.35
2023-01-05T00:43:35.121Z,97.83
2023-01-05T00:47:39.394Z,85.57
2023-01-05T00:51:43.173Z,99.28
2023-01-05T00:55:45.965Z,88.72
2023-01-05T00:59:48.554Z,92.97
2023-01-05T01:03:53.901Z,154.95
2023-01-05T01:07:59.594Z,136.65
2023-01-05T01:12:02.302Z,148.57
2023-01-05T01:16:14.226Z,136.38
2023-01-05T01:20:16.817Z,129.57
2023-01-05T01:24:24.993Z,133.05
2023-01-05T01:28:27.283Z,220.38
2023-01-05T01:32:29.614Z,242.13
2023-01-05T01:36:32.640Z,250.07
2023-01-05T01:40:43.082Z,224.77
2023-01-05T01:44:57.412Z,255.98
2023-01-05T01:49:11.576Z,291.88
2023-01-05T01:53:38.492Z,235.18
2023-01-05T01:57:43.229Z,214.45
2023-01-05T02:01:46.867Z,257.33
2023-01-05T02:05:49.179Z,217.23
2023-01-05T02:09:51.608Z,193.50
2023-01-05T02:14:18.619Z,267.25
2023-01-05T02:18:46.626Z,232.90
2023-01-05T02:23:08.541Z,317.88
2023-01-05T02:27:34.443Z,301.98
2023-01-05T02:31:57.826Z,364.42
2023-01-05T02:36:24.953Z,268.42
2023-01-05T02:40:39.872Z,262.52
2023-01-05T02:44:42.512Z,179.27
2023-01-05T02:48:48.362Z,209.07
2023-01-05T02:53:00.831Z,204.40
2023-01-05T02:57:19.745Z,283.77
2023-01-05T03:01:29.007Z,132.02
2023-01-05T03:05:57.034Z,255.32
2023-01-05T03:10:20.336Z,192.88
2023-01-05T03:14:31.486Z,254.70
2023-01-05T03:18:57.194Z,213.85
2023-01-05T03:27:43.287Z,186.75
2023-01-05T03:32:14.983Z,172.65
2023-01-05T03:36:23.842Z,243.52
2023-01-05T03:40:31.013Z,270.20
2023-01-05T03:44:37.614Z,292.27
2023-01-05T03:48:41.082Z,165.60
2023-01-05T03:52:43.449Z,208.65
2023-01-05T03:56:48.335Z,272.73
2023-01-05T04:00:50.930Z,203.23
2023-01-05T04:04:56.699Z,198.07
2023-01-05T04:08:59.306Z,215.43
2023-01-05T04:13:03.008Z,368.10
2023-01-05T04:17:05.874Z,200.45
2023-01-05T04:21:08.604Z,220.85
2023-01-05T04:25:12.168Z,235.53
2023-01-05T04:29:18.097Z,271.77
2023-01-05T04:33:25.037Z,182.50
2023-01-05T04:41:31.091Z,129.50
2023-01-05T04:45:34.424Z,141.98
2023-01-05T04:49:36.805Z,165.77
2023-01-05T04:53:41.008Z,183.88
2023-01-05T04:57:48.623Z,176.95
2023-01-05T05:01:53.987Z,193.75
2023-01-05T05:05:56.348Z,161.57
2023-01-05T05:10:01.865Z,118.20
2023-01-05T05:14:05.024Z,79.70
2023-01-05T05:18:09.604Z,59.50
2023-01-05T05:22:18.971Z,47.53
2023-01-05T05:26:23.713Z,55.15
2023-01-05T05:30:26.913Z,55.85
2023-01-05T05:34:29.325Z,47.60
2023-01-05T05:38:31.467Z,55.22
2023-01-05T05:42:34.265Z,55.22
2023-01-05T05:46:37.081Z,47.75
2023-01-05T05:50:39.626Z,50.42
2023-01-05T05:54:42.017Z,40.80
2023-01-05T05:58:44.321Z,58.28
2023-01-05T06:02:47.325Z,44.08
2023-01-05T06:06:50.923Z,40.47
2023-01-05T06:10:54.992Z,30.85
2023-01-05T06:19:42.373Z,25.05
2023-01-05T06:23:45.580Z,26.33
2023-01-05T06:27:47.764Z,25.48
2023-01-05T06:31:49.978Z,23.63
2023-01-05T06:35:52.777Z,33.35
2023-01-05T06:39:56.432Z,32.03
2023-01-05T06:43:58.609Z,27.03
2023-01-05T06:48:01.843Z,34.42
2023-01-05T06:52:04.192Z,29.80
2023-01-05T06:56:06.519Z,29.98
2023-01-05T07:00:11.859Z,27.38
2023-01-05T07:04:15.756Z,28.67
2023-01-05T07:08:18.119Z,23.83
2023-01-05T07:12:20.822Z,24.40
2023-01-05T07:16:23.406Z,22.25
2023-01-05T07:20:25.632Z,22.60
2023-01-05T07:24:27.893Z,20.65
2023-01-05T07:28:30.739Z,28.88
2023-01-05T07:32:32.925Z,26.27
2023-01-05T07:36:35.814Z,25.33
2023-01-05T07:40:38.513Z,27.42
2023-01-05T07:44:40.670Z,23.67
2023-01-05T07:48:42.900Z,26.48
2023-01-05T07:52:45.373Z,19.52
2023-01-05T07:56:47.883Z,25.13
2023-01-05T08:00:50.691Z,24.38
2023-01-05T08:04:53.723Z,22.55
2023-01-05T08:08:56.643Z,21.23
2023-01-05T08:13:25.345Z,21.20
2023-01-05T08:17:27.436Z,19.20
2023-01-05T08:21:29.641Z,19.00
2023-01-05T08:25:31.865Z,17.23
2023-01-05T08:29:34.085Z,18.23
2023-01-05T08:33:36.650Z,20.55
2023-01-05T08:37:39.741Z,20.00
2023-01-05T08:41:42.259Z,22.48
2023-01-05T08:45:50.236Z,17.77
2023-01-05T08:49:52.611Z,15.60
2023-01-05T08:53:55.356Z,15.23
2023-01-05T08:57:57.640Z,19.95
2023-01-05T09:01:59.940Z,17.75
2023-01-05T09:06:03.582Z,13.65
2023-01-05T09:10:07.721Z,14.30
2023-01-05T09:14:14.500Z,16.52
2023-01-05T09:18:16.672Z,17.85
2023-01-05T09:22:19.205Z,16.88
2023-01-05T09:26:21.509Z,13.38
2023-01-05T09:30:23.639Z,14.68
2023-01-05T09:34:26.383Z,16.30
2023-01-05T09:38:29.878Z,13.15
2023-01-05T09:42:34.278Z,13.13
2023-01-05T09:46:43.205Z,13.35
2023-01-05T09:50:48.486Z,12.68
2023-01-05T09:54:54.465Z,12.27
2023-01-05T09:59:06.473Z,11.10
2023-01-05T10:03:36.524Z,13.15
2023-01-05T10:07:54.201Z,15.32
2023-01-05T10:12:27.571Z,10.27
2023-01-05T10:16:31.343Z,11.23
2023-01-05T10:20:55.094Z,9.88
2023-01-05T10:25:15.084Z,8.63
2023-01-05T10:29:32.357Z,12.82
2023-01-05T10:33:53.577Z,9.13
2023-01-05T10:38:20.059Z,10.45
2023-01-05T10:42:39.385Z,9.60
2023-01-05T10:46:52.334Z,9.32
2023-01-05T10:50:58.068Z,10.87
2023-01-05T10:55:02.308Z,9.65
2023-01-05T10:59:11.967Z,11.55
2023-01-05T11:03:18.286Z,12.15
2023-01-05T11:07:23.945Z,12.02
2023-01-05T11:11:34.411Z,13.90
2023-01-05T11:16:04.007Z,10.68
2023-01-05T11:20:18.469Z,12.98
2023-01-05T11:29:15.197Z,14.00
2023-01-05T11:33:35.032Z,17.88
2023-01-05T11:37:47.691Z,16.40
2023-01-05T11:42:04.439Z,16.55
2023-01-05T11:46:16.233Z,12.88
2023-01-05T11:50:27.064Z,10.27
2023-01-05T11:54:43.965Z,12.23
2023-01-05T11:58:51.780Z,12.45
2023-01-05T12:03:32.316Z,10.13
2023-01-05T12:07:44.096Z,12.45
2023-01-05T12:12:07.724Z,10.80
2023-01-05T12:35:35.271Z,12.13
2023-01-05T12:59:34.048Z,6.72
2023-01-05T13:03:56.837Z,6.38
2023-01-05T13:08:35.283Z,4.68
2023-01-05T13:12:42.592Z,6.28
2023-01-05T13:26:38.338Z,8.80
2023-01-05T13:31:17.652Z,6.32
2023-01-05T13:36:13.906Z,8.07
2023-01-05T13:41:15.042Z,8.85
2023-01-05T13:51:07.621Z,7.30
2023-01-05T13:59:46.386Z,7.60
2023-01-05T14:03:59.934Z,10.38
2023-01-05T14:08:13.014Z,4.97
2023-01-05T14:12:24.572Z,7.95
2023-01-05T14:16:41.978Z,4.85
2023-01-05T14:20:51.280Z,5.25
2023-01-05T14:24:56.214Z,7.15
2023-01-05T14:29:03.762Z,5.82
2023-01-05T14:33:13.200Z,6.70
2023-01-05T14:37:28.546Z,8.13
2023-01-05T14:45:37.596Z,8.60
2023-01-05T14:49:54.813Z,11.23
2023-01-05T14:54:05.051Z,7.20
2023-01-05T14:58:37.186Z,7.30
2023-01-05T15:03:12.108Z,6.88
2023-01-05T15:07:42.347Z,6.33
2023-01-05T15:12:13.278Z,9.95
2023-01-05T15:16:51.737Z,8.50
2023-01-05T15:21:12.754Z,13.90
2023-01-05T15:25:25.134Z,9.75
2023-01-05T15:29:54.981Z,11.27
2023-01-05T15:34:12.602Z,8.85
2023-01-05T15:38:24.756Z,11.90
2023-01-05T15:42:37.665Z,12.98
2023-01-05T15:46:42.724Z,11.18
2023-01-05T15:50:51.320Z,13.15
2023-01-05T15:54:59.633Z,12.95
2023-01-05T15:59:04.199Z,14.80
2023-01-05T16:03:21.307Z,15.25
2023-01-05T16:07:23.942Z,13.80
2023-01-05T16:11:34.214Z,19.75
2023-01-05T16:15:38.446Z,24.33
2023-01-05T16:20:05.405Z,23.52
2023-01-05T16:24:29.629Z,58.17
2023-01-05T16:28:32.071Z,37.67
2023-01-05T16:32:39.234Z,26.02
2023-01-05T16:36:57.977Z,16.25
2023-01-05T16:41:12.748Z,19.88
2023-01-05T16:45:26.120Z,22.23
2023-01-05T16:53:52.168Z,26.67
2023-01-05T16:57:54.627Z,49.45
2023-01-05T17:01:56.720Z,24.05
2023-01-05T17:06:01.247Z,23.10
2023-01-05T17:10:04.592Z,32.38
2023-01-05T17:14:07.609Z,37.55
2023-01-05T17:18:29.253Z,32.58
2023-01-05T17:22:31.727Z,20.15
2023-01-05T17:26:38.229Z,22.42
2023-01-05T17:30:40.352Z,25.67
2023-01-05T17:34:42.599Z,59.63
2023-01-05T17:38:46.571Z,23.52
2023-01-05T17:42:49.781Z,38.50
2023-01-05T17:46:52.208Z,26.88
2023-01-05T17:50:54.571Z,26.63
2023-01-05T17:54:56.863Z,24.33
2023-01-05T17:58:59.025Z,21.02
2023-01-05T18:03:01.777Z,20.67
2023-01-05T18:07:03.868Z,25.85
2023-01-05T18:11:07.519Z,21.92
2023-01-05T18:27:20.537Z,17.85
2023-01-05T18:31:22.957Z,29.33
2023-01-05T18:35:25.609Z,23.27
2023-01-05T18:39:28.183Z,25.00
2023-01-05T18:43:32.434Z,27.10
2023-01-05T18:47:35.283Z,28.13
2023-01-05T18:51:39.399Z,26.35
2023-01-05T18:55:42.712Z,30.02
2023-01-05T18:59:45.097Z,28.58
2023-01-05T19:03:47.645Z,29.60
2023-01-05T19:07:54.284Z,35.83
2023-01-05T19:11:56.492Z,34.58
2023-01-05T19:16:01.899Z,26.77
2023-01-05T19:20:04.760Z,34.47
2023-01-05T19:24:15.073Z,36.45
2023-01-05T19:28:17.476Z,41.53
2023-01-05T19:32:20.338Z,44.90
2023-01-05T19:36:24.293Z,38.50
2023-01-05T19:40:27.160Z,38.78
2023-01-05T19:44:29.521Z,37.53
2023-01-05T19:48:33.223Z,32.80
2023-01-05T19:52:35.631Z,32.95
2023-01-05T19:56:38.965Z,30.52
2023-01-05T20:00:41.210Z,30.20
2023-01-05T20:04:45.658Z,29.95
2023-01-05T20:08:52.909Z,28.70
2023-01-05T20:12:55.073Z,31.55
2023-01-05T20:17:03.388Z,28.50
2023-01-05T20:21:07.861Z,29.05
2023-01-05T20:25:11.095Z,28.25
2023-01-05T20:29:15.154Z,24.50
2023-01-05T20:33:18.370Z,23.52
2023-01-05T20:37:23.832Z,25.40
2023-01-05T20:41:37.864Z,27.80
2023-01-05T20:45:40.010Z,26.47
2023-01-05T20:49:44.713Z,24.58
2023-01-05T20:53:46.960Z,29.20
2023-01-05T20:57:51.789Z,25.80
2023-01-05T21:01:55.215Z,35.40
2023-01-05T21:05:57.899Z,24.97
2023-01-05T21:10:00.369Z,34.03
2023-01-05T21:14:03.644Z,30.17
2023-01-05T21:18:05.915Z,30.08
2023-01-05T21:22:08.115Z,26.70
2023-01-05T21:26:12.817Z,30.05
2023-01-05T21:30:16.222Z,27.33
2023-01-05T21:34:19.168Z,26.58
2023-01-05T21:38:21.451Z,25.65
2023-01-05T21:42:50.212Z,23.92
2023-01-05T21:46:52.418Z,25.17
2023-01-05T21:51:18.401Z,22.33
2023-01-05T21:55:39.187Z,24.88
2023-01-05T21:59:42.350Z,19.38
2023-01-05T22:03:44.629Z,23.38
2023-01-05T22:07:47.467Z,22.23
2023-01-05T22:11:49.776Z,22.83
2023-01-05T22:15:55.412Z,22.23
2023-01-05T22:19:59.506Z,25.58
2023-01-05T22:24:02.528Z,23.33
2023-01-05T22:28:05.599Z,27.30
2023-01-05T22:32:08.333Z,27.67
2023-01-05T22:36:12.290Z,24.80
2023-01-05T22:40:14.655Z,22.83
2023-01-05T22:44:20.957Z,22.33
2023-01-05T22:48:25.313Z,21.08
2023-01-05T22:52:27.552Z,24.33
2023-01-05T22:56:34.648Z,28.00
2023-01-05T23:00:37.361Z,30.00
2023-01-05T23:04:39.744Z,25.52
2023-01-05T23:08:43.276Z,27.50
2023-01-05T23:12:45.729Z,24.57
2023-01-05T23:16:48.870Z,22.55
2023-01-05T23:21:00.235Z,25.55
2023-01-05T23:25:02.693Z,30.75
2023-01-05T23:29:04.968Z,22.00
2023-01-05T23:33:07.338Z,22.88
2023-01-05T23:37:09.683Z,23.75
2023-01-05T23:41:13.519Z,23.75
2023-01-05T23:45:16.254Z,27.60
2023-01-05T23:49:18.784Z,22.40
2023-01-05T23:53:21.156Z,23.48
2023-01-05T23:57:24.018Z,24.88
